createdAt,value
2023-03-13T00:01:13.956Z,8.03
2023-03-13T00:03:42.201Z,8.20
2023-03-13T00:06:10.978Z,8.87
2023-03-13T00:08:39.490Z,9.93
2023-03-13T00:11:10.778Z,7.70
2023-03-13T00:13:39.574Z,8.17
2023-03-13T00:16:09.677Z,8.80
2023-03-13T00:18:38.050Z,8.47
2023-03-13T00:21:08.150Z,9.10
2023-03-13T00:23:38.170Z,9.17
2023-03-13T00:26:08.207Z,8.33
2023-03-13T00:28:38.836Z,8.20
2023-03-13T00:31:09.586Z,7.57
2023-03-13T00:33:39.730Z,7.77
2023-03-13T00:36:10.423Z,7.67
2023-03-13T00:38:38.645Z,7.40
2023-03-13T00:41:08.645Z,6.47
2023-03-13T00:43:38.205Z,7.13
2023-03-13T00:46:06.929Z,7.27
2023-03-13T00:48:35.524Z,6.93
2023-03-13T00:51:04.910Z,7.10
2023-03-13T00:53:33.463Z,7.20
2023-03-13T00:56:04.392Z,7.00
2023-03-13T00:58:35.286Z,7.70
2023-03-13T01:01:13.392Z,7.63
2023-03-13T01:03:42.497Z,6.80
2023-03-13T01:06:13.225Z,6.90
2023-03-13T01:08:41.663Z,6.50
2023-03-13T01:11:11.612Z,6.07
2023-03-13T01:13:39.879Z,6.30
2023-03-13T01:16:11.470Z,7.13
2023-03-13T01:18:42.494Z,6.57
2023-03-13T01:21:12.100Z,5.20
2023-03-13T01:23:40.233Z,5.80
2023-03-13T01:26:10.052Z,4.97
2023-03-13T01:28:39.752Z,5.20
2023-03-13T01:31:17.775Z,5.10
2023-03-13T01:33:47.433Z,4.70
2023-03-13T01:36:18.512Z,4.47
2023-03-13T01:38:50.220Z,4.43
2023-03-13T01:41:20.110Z,4.57
2023-03-13T01:43:48.417Z,4.77
2023-03-13T01:46:20.854Z,4.70
2023-03-13T01:49:14.143Z,4.30
2023-03-13T01:51:59.574Z,4.17
2023-03-13T01:54:33.765Z,5.40
2023-03-13T01:57:05.931Z,4.40
2023-03-13T01:59:38.768Z,3.93
2023-03-13T02:02:09.158Z,4.27
2023-03-13T02:04:41.141Z,4.30
2023-03-13T02:07:14.891Z,4.10
2023-03-13T02:09:46.505Z,3.97
2023-03-13T02:12:17.541Z,4.10
2023-03-13T02:14:48.284Z,4.40
2023-03-13T02:17:19.046Z,4.07
2023-03-13T02:19:50.123Z,4.23
2023-03-13T02:22:25.393Z,4.37
2023-03-13T02:24:59.707Z,4.33
2023-03-13T02:27:29.338Z,4.67
2023-03-13T02:29:57.485Z,3.77
2023-03-13T02:32:27.502Z,3.93
2023-03-13T02:35:00.240Z,4.53
2023-03-13T02:37:30.570Z,4.27
2023-03-13T02:40:01.812Z,4.60
2023-03-13T02:42:33.030Z,4.30
2023-03-13T02:45:02.199Z,3.80
2023-03-13T02:47:30.243Z,4.20
2023-03-13T02:49:58.408Z,4.33
2023-03-13T02:52:30.356Z,4.30
2023-03-13T02:55:01.803Z,4.20
2023-03-13T02:57:31.876Z,4.40
2023-03-13T03:00:00.071Z,3.80
2023-03-13T03:02:28.626Z,4.13
2023-03-13T03:04:56.802Z,4.20
2023-03-13T03:07:24.970Z,4.43
2023-03-13T03:09:53.712Z,4.37
2023-03-13T03:12:22.339Z,4.53
2023-03-13T03:14:51.996Z,4.40
2023-03-13T03:17:20.469Z,4.20
2023-03-13T03:19:48.581Z,4.23
2023-03-13T03:22:16.819Z,4.27
2023-03-13T03:24:44.920Z,4.40
2023-03-13T03:27:13.034Z,4.30
2023-03-13T03:29:47.661Z,3.90
2023-03-13T03:32:17.982Z,3.87
2023-03-13T03:34:46.112Z,4.00
2023-03-13T03:37:20.805Z,4.37
2023-03-13T03:39:49.001Z,3.87
2023-03-13T03:42:17.230Z,3.80
2023-03-13T03:44:45.450Z,4.13
2023-03-13T03:47:15.116Z,4.03
2023-03-13T03:49:48.043Z,4.53
2023-03-13T03:52:17.376Z,4.10
2023-03-13T03:54:45.970Z,4.00
2023-03-13T03:57:15.779Z,4.03
2023-03-13T03:59:46.266Z,4.00
2023-03-13T04:02:14.452Z,4.13
2023-03-13T04:04:43.542Z,4.40
2023-03-13T04:07:27.439Z,4.70
2023-03-13T04:09:55.609Z,4.30
2023-03-13T04:12:32.620Z,4.43
2023-03-13T04:15:00.858Z,4.83
2023-03-13T04:17:29.197Z,5.00
2023-03-13T04:19:57.415Z,4.90
2023-03-13T04:22:26.995Z,5.10
2023-03-13T04:24:58.993Z,4.90
2023-03-13T04:27:29.080Z,4.43
2023-03-13T04:29:57.579Z,4.83
2023-03-13T04:32:25.803Z,4.90
2023-03-13T04:35:14.292Z,4.90
2023-03-13T04:38:06.729Z,5.17
2023-03-13T04:40:50.787Z,6.30
2023-03-13T04:43:32.520Z,5.13
2023-03-13T04:46:18.630Z,5.63
2023-03-13T04:49:08.920Z,4.90
2023-03-13T04:51:40.020Z,5.03
2023-03-13T04:54:22.623Z,5.57
2023-03-13T04:57:11.145Z,5.77
2023-03-13T05:00:02.630Z,5.90
2023-03-13T05:02:54.118Z,5.63
2023-03-13T05:05:22.391Z,5.53
2023-03-13T05:07:56.825Z,5.67
2023-03-13T05:10:45.493Z,6.20
2023-03-13T05:13:32.470Z,6.10
2023-03-13T05:16:11.260Z,6.10
2023-03-13T05:19:18.413Z,5.90
2023-03-13T05:22:05.551Z,6.17
2023-03-13T05:24:36.440Z,6.17
2023-03-13T05:27:21.072Z,5.87
2023-03-13T05:30:13.552Z,6.43
2023-03-13T05:33:05.146Z,6.50
2023-03-13T05:35:46.734Z,6.27
2023-03-13T05:38:32.268Z,6.50
2023-03-13T05:41:12.722Z,6.40
2023-03-13T05:44:05.541Z,7.07
2023-03-13T05:46:52.421Z,6.37
2023-03-13T05:49:38.977Z,6.37
2023-03-13T05:52:27.041Z,6.50
2023-03-13T05:55:15.286Z,6.67
2023-03-13T05:57:46.330Z,7.10
2023-03-13T06:00:33.642Z,6.33
2023-03-13T06:03:24.817Z,6.50
2023-03-13T06:05:58.984Z,6.50
2023-03-13T06:08:38.591Z,6.93
2023-03-13T06:11:06.842Z,7.00
2023-03-13T06:13:35.569Z,6.77
2023-03-13T06:16:25.442Z,7.40
2023-03-13T06:18:59.218Z,7.60
2023-03-13T06:21:27.631Z,7.17
2023-03-13T06:23:55.985Z,7.63
2023-03-13T06:26:24.905Z,7.37
2023-03-13T06:28:53.223Z,6.67
2023-03-13T06:31:21.784Z,7.67
2023-03-13T06:33:54.345Z,7.70
2023-03-13T06:36:23.197Z,7.43
2023-03-13T06:38:51.398Z,7.03
2023-03-13T06:41:20.290Z,7.57
2023-03-13T06:43:48.359Z,7.77
2023-03-13T06:46:19.071Z,7.97
2023-03-13T06:48:47.902Z,7.40
2023-03-13T06:51:19.520Z,6.90
2023-03-13T06:53:48.144Z,7.60
2023-03-13T06:56:16.720Z,7.63
2023-03-13T06:58:47.986Z,8.17
2023-03-13T07:01:18.381Z,9.17
2023-03-13T07:03:49.282Z,7.87
2023-03-13T07:06:19.292Z,7.37
2023-03-13T07:08:47.776Z,7.73
2023-03-13T07:11:16.235Z,7.73
2023-03-13T07:13:44.809Z,7.03
2023-03-13T07:16:14.715Z,6.83
2023-03-13T07:18:44.895Z,5.93
2023-03-13T07:21:13.897Z,8.10
2023-03-13T07:23:43.355Z,7.90
2023-03-13T07:26:15.633Z,8.93
2023-03-13T07:28:44.007Z,7.90
2023-03-13T07:31:14.802Z,9.37
2023-03-13T07:33:43.460Z,5.67
2023-03-13T07:36:12.375Z,8.40
2023-03-13T07:38:44.917Z,5.10
2023-03-13T07:41:15.230Z,6.13
2023-03-13T07:43:43.746Z,6.10
2023-03-13T07:46:14.445Z,5.70
2023-03-13T07:48:44.380Z,7.33
2023-03-13T07:51:14.851Z,8.80
2023-03-13T07:53:43.407Z,8.73
2023-03-13T07:56:13.439Z,5.97
2023-03-13T07:58:44.131Z,7.90
2023-03-13T08:01:13.818Z,7.23
2023-03-13T08:03:42.036Z,7.30
2023-03-13T08:06:12.130Z,7.73
2023-03-13T08:08:40.220Z,10.23
2023-03-13T08:11:10.151Z,7.37
2023-03-13T08:13:39.428Z,6.60
2023-03-13T08:16:11.459Z,6.07
2023-03-13T08:18:42.008Z,5.90
2023-03-13T08:21:12.027Z,6.07
2023-03-13T08:23:40.508Z,6.10
2023-03-13T08:26:10.450Z,5.57
2023-03-13T08:28:40.006Z,5.10
2023-03-13T08:31:10.805Z,5.47
2023-03-13T08:33:39.687Z,5.63
2023-03-13T08:36:13.386Z,5.33
2023-03-13T08:38:46.000Z,5.97
2023-03-13T08:41:15.536Z,5.40
2023-03-13T08:43:43.833Z,6.67
2023-03-13T08:46:14.076Z,6.50
2023-03-13T08:48:42.620Z,6.30
2023-03-13T08:51:12.595Z,5.73
2023-03-13T08:53:42.527Z,5.10
2023-03-13T08:56:11.450Z,7.37
2023-03-13T08:58:39.940Z,6.93
2023-03-13T09:01:09.833Z,5.13
2023-03-13T09:03:40.108Z,7.40
2023-03-13T09:06:09.563Z,6.07
2023-03-13T09:08:38.611Z,7.23
2023-03-13T09:11:09.322Z,5.70
2023-03-13T09:13:39.801Z,6.07
2023-03-13T09:16:10.112Z,6.53
2023-03-13T09:18:39.978Z,5.30
2023-03-13T09:21:10.398Z,5.87
2023-03-13T09:23:39.090Z,7.47
2023-03-13T09:26:07.821Z,5.83
2023-03-13T09:28:36.281Z,7.33
2023-03-13T09:31:11.623Z,6.43
2023-03-13T09:33:41.835Z,6.63
2023-03-13T09:36:11.120Z,5.13
2023-03-13T09:38:39.928Z,5.40
2023-03-13T09:41:22.524Z,8.10
2023-03-13T09:43:55.874Z,6.73
2023-03-13T09:46:27.984Z,7.60
2023-03-13T09:49:00.567Z,6.13
2023-03-13T09:51:32.880Z,5.87
2023-03-13T09:54:06.232Z,5.13
2023-03-13T09:56:40.764Z,4.20
2023-03-13T09:59:18.768Z,4.30
2023-03-13T10:01:50.528Z,4.10
2023-03-13T10:04:36.727Z,4.87
2023-03-13T10:07:05.365Z,4.30
2023-03-13T10:09:36.857Z,5.23
2023-03-13T10:12:13.224Z,4.13
2023-03-13T10:14:49.048Z,5.60
2023-03-13T10:17:26.703Z,3.50
2023-03-13T10:20:00.709Z,4.10
2023-03-13T10:22:32.592Z,5.47
2023-03-13T10:25:05.861Z,4.90
2023-03-13T10:27:44.437Z,5.03
2023-03-13T10:30:22.921Z,4.57
2023-03-13T10:32:51.055Z,3.83
2023-03-13T10:35:25.020Z,3.83
2023-03-13T10:38:03.803Z,5.63
2023-03-13T10:40:31.998Z,3.70
2023-03-13T10:43:06.216Z,3.67
2023-03-13T10:45:36.748Z,5.47
2023-03-13T10:48:13.780Z,3.45
2023-03-13T10:50:46.611Z,3.10
2023-03-13T10:53:32.932Z,4.57
2023-03-13T10:56:10.982Z,5.75
2023-03-13T10:58:43.959Z,4.85
2023-03-13T11:01:24.420Z,5.88
2023-03-13T11:03:54.122Z,3.67
2023-03-13T11:06:29.873Z,4.85
2023-03-13T11:09:06.536Z,4.18
2023-03-13T11:11:50.009Z,5.38
2023-03-13T11:14:20.358Z,3.47
2023-03-13T11:16:50.766Z,4.75
2023-03-13T11:19:42.678Z,4.38
2023-03-13T11:22:36.250Z,4.45
2023-03-13T11:25:18.041Z,4.78
2023-03-13T11:27:56.637Z,3.65
2023-03-13T11:30:41.568Z,3.15
2023-03-13T11:33:20.887Z,3.90
2023-03-13T11:35:52.587Z,2.92
2023-03-13T11:38:30.189Z,5.65
2023-03-13T11:41:06.349Z,3.70
2023-03-13T11:43:52.371Z,2.75
2023-03-13T11:46:29.833Z,3.90
2023-03-13T11:49:52.069Z,3.38
2023-03-13T11:52:33.264Z,2.90
2023-03-13T11:55:27.817Z,2.60
2023-03-13T11:58:07.192Z,3.97
2023-03-13T12:00:38.917Z,3.75
2023-03-13T12:03:16.006Z,3.88
2023-03-13T12:05:48.821Z,3.05
2023-03-13T12:08:21.480Z,4.07
2023-03-13T12:11:01.124Z,4.63
2023-03-13T12:13:33.845Z,3.13
2023-03-13T12:16:07.499Z,2.17
2023-03-13T12:18:39.552Z,3.42
2023-03-13T12:21:18.728Z,2.28
2023-03-13T12:23:52.660Z,2.72
2023-03-13T12:26:27.837Z,2.17
2023-03-13T12:29:07.588Z,3.42
2023-03-13T12:31:41.465Z,3.35
2023-03-13T12:34:16.205Z,2.53
2023-03-13T12:36:50.013Z,2.20
2023-03-13T12:39:27.852Z,3.13
2023-03-13T12:42:11.451Z,2.60
2023-03-13T12:44:40.847Z,1.98
2023-03-13T12:47:17.262Z,1.92
2023-03-13T12:50:29.867Z,1.85
2023-03-13T12:53:23.718Z,4.05
2023-03-13T12:56:04.098Z,5.95
2023-03-13T12:58:42.225Z,1.92
2023-03-13T13:01:17.137Z,2.42
2023-03-13T13:03:53.570Z,1.73
2023-03-13T13:06:21.934Z,2.83
2023-03-13T13:09:07.319Z,1.73
2023-03-13T13:11:50.386Z,2.50
2023-03-13T13:14:55.552Z,1.60
2023-03-13T13:17:31.582Z,2.03
2023-03-13T13:20:00.157Z,1.90
2023-03-13T13:22:50.586Z,1.75
2023-03-13T13:25:35.521Z,2.47
2023-03-13T13:28:37.762Z,1.90
2023-03-13T13:31:46.843Z,2.22
2023-03-13T13:34:48.270Z,2.70
2023-03-13T13:37:30.024Z,2.35
2023-03-13T13:40:19.936Z,1.95
2023-03-13T13:42:50.691Z,3.92
2023-03-13T13:45:32.838Z,2.10
2023-03-13T13:48:27.872Z,2.00
2023-03-13T13:51:23.877Z,1.90
2023-03-13T13:53:56.133Z,2.45
2023-03-13T13:56:41.247Z,2.03
2023-03-13T13:59:30.936Z,2.45
2023-03-13T14:02:21.660Z,2.10
2023-03-13T14:05:07.082Z,2.40
2023-03-13T14:07:51.272Z,2.40
2023-03-13T14:10:30.896Z,2.67
2023-03-13T14:13:00.339Z,2.67
2023-03-13T14:15:30.246Z,1.90
2023-03-13T14:18:01.424Z,2.40
2023-03-13T14:20:33.542Z,2.77
2023-03-13T14:23:03.682Z,3.33
2023-03-13T14:25:46.349Z,2.20
2023-03-13T14:28:20.403Z,2.53
2023-03-13T14:30:50.490Z,2.70
2023-03-13T14:33:18.934Z,3.43
2023-03-13T14:35:48.323Z,2.23
2023-03-13T14:38:19.378Z,2.10
2023-03-13T14:40:49.961Z,2.30
2023-03-13T14:43:26.705Z,2.20
2023-03-13T14:45:55.399Z,2.50
2023-03-13T14:48:27.541Z,2.40
2023-03-13T14:51:14.751Z,2.50
2023-03-13T14:53:56.620Z,2.20
2023-03-13T14:56:35.834Z,2.53
2023-03-13T14:59:18.188Z,2.40
2023-03-13T15:01:47.068Z,2.50
2023-03-13T15:04:15.123Z,2.40
2023-03-13T15:06:43.359Z,2.40
2023-03-13T15:09:20.233Z,3.73
2023-03-13T15:11:58.778Z,2.73
2023-03-13T15:14:35.995Z,2.20
2023-03-13T15:17:05.089Z,2.00
2023-03-13T15:19:33.370Z,3.00
2023-03-13T15:22:01.698Z,2.57
2023-03-13T15:24:29.734Z,2.47
2023-03-13T15:26:59.236Z,3.57
2023-03-13T15:29:27.366Z,2.90
2023-03-13T15:31:55.439Z,3.70
2023-03-13T15:34:25.566Z,2.77
2023-03-13T15:36:53.679Z,2.77
2023-03-13T15:39:25.521Z,2.50
2023-03-13T15:41:56.650Z,2.70
2023-03-13T15:44:26.311Z,2.90
2023-03-13T15:46:54.466Z,2.67
2023-03-13T15:49:22.514Z,4.07
2023-03-13T15:51:50.831Z,3.90
2023-03-13T15:54:18.890Z,2.80
2023-03-13T15:56:48.046Z,3.00
2023-03-13T15:59:18.179Z,3.30
2023-03-13T16:01:48.565Z,3.77
2023-03-13T16:04:16.805Z,3.03
2023-03-13T16:06:44.909Z,3.67
2023-03-13T16:09:17.509Z,3.40
2023-03-13T16:11:45.950Z,2.90
2023-03-13T16:14:14.033Z,2.97
2023-03-13T16:16:42.788Z,3.30
2023-03-13T16:19:12.578Z,2.90
2023-03-13T16:21:45.265Z,2.97
2023-03-13T16:24:13.436Z,3.30
2023-03-13T16:26:41.488Z,3.50
2023-03-13T16:29:12.546Z,3.40
2023-03-13T16:31:40.745Z,5.03
2023-03-13T16:34:09.312Z,3.00
2023-03-13T16:36:38.964Z,3.10
2023-03-13T16:39:10.020Z,3.37
2023-03-13T16:41:38.185Z,3.17
2023-03-13T16:44:06.628Z,3.30
2023-03-13T16:46:38.285Z,3.70
2023-03-13T16:49:07.234Z,3.80
2023-03-13T16:51:35.334Z,3.00
2023-03-13T16:54:06.715Z,3.50
2023-03-13T16:56:36.628Z,3.30
2023-03-13T16:59:08.652Z,3.50
2023-03-13T17:01:37.440Z,3.37
2023-03-13T17:04:05.748Z,3.37
2023-03-13T17:06:37.250Z,3.70
2023-03-13T17:09:13.396Z,3.43
2023-03-13T17:11:41.768Z,4.07
2023-03-13T17:14:09.884Z,3.77
2023-03-13T17:16:42.210Z,3.17
2023-03-13T17:19:14.491Z,3.50
2023-03-13T17:21:42.598Z,3.70
2023-03-13T17:24:12.048Z,3.23
2023-03-13T17:26:41.349Z,3.33
2023-03-13T17:29:15.719Z,3.23
2023-03-13T17:31:44.002Z,3.23
2023-03-13T17:34:13.144Z,4.73
2023-03-13T17:36:41.665Z,3.73
2023-03-13T17:39:15.976Z,3.40
2023-03-13T17:41:44.231Z,3.37
2023-03-13T17:44:12.306Z,3.83
2023-03-13T17:46:43.179Z,3.80
2023-03-13T17:49:12.961Z,3.77
2023-03-13T17:51:41.978Z,5.57
2023-03-13T17:54:10.277Z,6.07
2023-03-13T17:56:41.462Z,7.20
2023-03-13T17:59:13.427Z,8.23
2023-03-13T18:01:42.280Z,8.40
2023-03-13T18:04:11.388Z,7.40
2023-03-13T18:06:42.942Z,7.90
2023-03-13T18:09:15.427Z,9.00
2023-03-13T18:11:45.360Z,8.73
2023-03-13T18:14:13.786Z,7.77
2023-03-13T18:16:47.917Z,9.07
2023-03-13T18:19:21.301Z,10.90
2023-03-13T18:21:53.071Z,8.53
2023-03-13T18:24:27.081Z,8.40
2023-03-13T18:26:56.697Z,8.57
2023-03-13T18:29:27.220Z,8.73
2023-03-13T18:31:56.338Z,8.47
2023-03-13T18:34:25.898Z,9.20
2023-03-13T18:37:09.091Z,8.60
2023-03-13T18:39:39.371Z,9.33
2023-03-13T18:42:10.701Z,11.17
2023-03-13T18:44:38.861Z,8.90
2023-03-13T18:47:13.102Z,9.13
2023-03-13T18:49:41.460Z,8.43
2023-03-13T18:52:11.394Z,9.07
2023-03-13T18:54:39.584Z,8.70
2023-03-13T18:57:14.319Z,8.80
2023-03-13T18:59:43.050Z,8.53
2023-03-13T19:02:14.354Z,9.17
2023-03-13T19:04:43.182Z,8.80
2023-03-13T19:07:16.175Z,7.93
2023-03-13T19:09:46.822Z,8.03
2023-03-13T19:12:16.905Z,9.60
2023-03-13T19:14:45.196Z,8.97
2023-03-13T19:17:24.179Z,8.77
2023-03-13T19:19:57.109Z,7.13
2023-03-13T19:22:25.314Z,7.77
2023-03-13T19:24:53.612Z,6.53
2023-03-13T19:27:23.170Z,6.80
2023-03-13T19:29:51.278Z,6.67
2023-03-13T19:32:20.026Z,7.20
2023-03-13T19:34:48.124Z,7.77
2023-03-13T19:37:18.979Z,8.03
2023-03-13T19:39:47.216Z,8.03
2023-03-13T19:42:15.333Z,7.30
2023-03-13T19:44:46.144Z,7.80
2023-03-13T19:47:15.821Z,7.17
2023-03-13T19:49:45.534Z,8.63
2023-03-13T19:52:13.754Z,7.60
2023-03-13T19:54:41.795Z,7.80
2023-03-13T19:57:11.293Z,7.63
2023-03-13T19:59:40.222Z,7.57
2023-03-13T20:02:11.022Z,8.03
2023-03-13T20:04:39.592Z,7.87
2023-03-13T20:07:08.330Z,7.97
2023-03-13T20:09:36.847Z,8.03
2023-03-13T20:12:05.717Z,7.63
2023-03-13T20:14:33.818Z,6.97
2023-03-13T20:17:03.330Z,7.10
2023-03-13T20:19:32.990Z,9.50
2023-03-13T20:22:03.789Z,7.40
2023-03-13T20:24:33.723Z,8.77
2023-03-13T20:27:02.315Z,7.10
2023-03-13T20:29:30.399Z,8.10
2023-03-13T20:32:00.388Z,7.53
2023-03-13T20:34:28.932Z,7.43
2023-03-13T20:37:00.017Z,6.93
2023-03-13T20:39:28.923Z,7.20
2023-03-13T20:41:57.552Z,7.17
2023-03-13T20:44:25.783Z,12.50
2023-03-13T20:46:53.916Z,6.87
2023-03-13T20:49:22.226Z,7.37
2023-03-13T20:51:50.233Z,7.47
2023-03-13T20:54:19.754Z,7.67
2023-03-13T20:56:47.825Z,7.07
2023-03-13T20:59:16.003Z,7.80
2023-03-13T21:01:44.358Z,7.70
2023-03-13T21:04:12.577Z,7.07
2023-03-13T21:06:40.637Z,9.43
2023-03-13T21:09:08.769Z,7.57
2023-03-13T21:11:38.211Z,8.50
2023-03-13T21:14:06.371Z,7.87
2023-03-13T21:16:34.523Z,7.10
2023-03-13T21:19:02.655Z,7.20
2023-03-13T21:21:30.684Z,7.47
2023-03-13T21:23:58.869Z,7.63
2023-03-13T21:26:26.904Z,8.13
2023-03-13T21:28:56.467Z,6.50
2023-03-13T21:31:24.533Z,7.07
2023-03-13T21:33:52.728Z,7.60
2023-03-13T21:36:22.572Z,6.97
2023-03-13T21:38:51.700Z,6.80
2023-03-13T21:41:21.880Z,7.47
2023-03-13T21:43:50.207Z,6.43
2023-03-13T21:46:20.898Z,6.33
2023-03-13T21:48:49.110Z,6.70
2023-03-13T21:51:17.482Z,6.93
2023-03-13T21:53:45.736Z,6.50
2023-03-13T21:56:15.857Z,5.70
2023-03-13T21:58:45.340Z,6.33
2023-03-13T22:01:13.699Z,5.70
2023-03-13T22:03:43.391Z,6.10
2023-03-13T22:06:16.471Z,5.80
2023-03-13T22:08:44.661Z,5.90
2023-03-13T22:11:12.737Z,5.60
2023-03-13T22:13:41.082Z,6.77
2023-03-13T22:16:10.470Z,5.70
2023-03-13T22:18:39.034Z,5.87
2023-03-13T22:21:08.880Z,5.43
2023-03-13T22:23:36.928Z,5.40
2023-03-13T22:26:05.367Z,5.73
2023-03-13T22:28:33.423Z,5.43
2023-03-13T22:31:02.453Z,4.40
2023-03-13T22:33:30.990Z,5.83
2023-03-13T22:35:59.442Z,5.63
2023-03-13T22:38:29.235Z,3.73
2023-03-13T22:41:02.183Z,6.23
2023-03-13T22:43:31.070Z,4.80
2023-03-13T22:45:59.766Z,5.60
2023-03-13T22:48:28.412Z,3.60
2023-03-13T22:51:01.532Z,6.77
2023-03-13T22:53:31.547Z,4.13
2023-03-13T22:56:00.003Z,3.80
2023-03-13T22:58:28.655Z,4.50
2023-03-13T23:00:56.885Z,3.73
2023-03-13T23:03:25.029Z,4.80
2023-03-13T23:05:53.154Z,5.43
2023-03-13T23:08:21.214Z,4.57
2023-03-13T23:10:50.745Z,5.63
2023-03-13T23:13:18.781Z,4.23
2023-03-13T23:15:55.610Z,5.17
2023-03-13T23:18:24.997Z,4.03
2023-03-13T23:20:53.237Z,6.53
2023-03-13T23:23:21.520Z,4.33
2023-03-13T23:25:50.998Z,4.33
2023-03-13T23:28:19.128Z,3.47
2023-03-13T23:30:47.190Z,3.93
2023-03-13T23:33:15.281Z,3.83
2023-03-13T23:35:44.082Z,4.20
2023-03-13T23:38:13.214Z,4.23
2023-03-13T23:40:41.270Z,4.10
2023-03-13T23:43:10.841Z,4.00
2023-03-13T23:45:39.000Z,3.50
2023-03-13T23:48:07.592Z,3.80
2023-03-13T23:50:37.299Z,2.80
2023-03-13T23:53:05.359Z,3.20
2023-03-13T23:55:33.561Z,2.80
2023-03-13T23:58:01.707Z,2.97
